sensor_id;sensor_type;location;lat;lon;timestamp;P1;durP1;ratioP1;P2;durP2;ratioP2
55300;SDS011;58302;51.446;-2.000;2023-06-24T00:00:09;11.50;;;7.97;;
55300;SDS011;58302;51.446;-2.000;2023-06-24T00:02:37;10.25;;;7.43;;
55300;SDS011;58302;51.446;-2.000;2023-06-24T00:05:03;12.80;;;8.02;;
55300;SDS011;58302;51.446;-2.000;2023-06-24T00:07:31;10.43;;;7.20;;
55300;SDS011;58302;51.446;-2.000;2023-06-24T00:09:57;13.05;;;7.53;;
55300;SDS011;58302;51.446;-2.000;2023-06-24T00:12:24;10.13;;;7.22;;
55300;SDS011;58302;51.446;-2.000;2023-06-24T00:14:50;11.82;;;7.60;;
55300;SDS011;58302;51.446;-2.000;2023-06-24T00:17:16;12.13;;;6.70;;
55300;SDS011;58302;51.446;-2.000;2023-06-24T00:19:42;8.65;;;6.55;;
55300;SDS011;58302;51.446;-2.000;2023-06-24T00:22:09;13.73;;;7.47;;
55300;SDS011;58302;51.446;-2.000;2023-06-24T00:24:35;11.30;;;7.25;;
55300;SDS011;58302;51.446;-2.000;2023-06-24T00:27:01;11.40;;;7.25;;
55300;SDS011;58302;51.446;-2.000;2023-06-24T00:29:27;11.77;;;7.85;;
55300;SDS011;58302;51.446;-2.000;2023-06-24T00:31:53;10.75;;;7.63;;
55300;SDS011;58302;51.446;-2.000;2023-06-24T00:34:19;11.30;;;8.05;;
55300;SDS011;58302;51.446;-2.000;2023-06-24T00:36:46;9.18;;;7.25;;
55300;SDS011;58302;51.446;-2.000;2023-06-24T00:39:12;12.32;;;8.50;;
55300;SDS011;58302;51.446;-2.000;2023-06-24T00:41:38;9.38;;;7.80;;
55300;SDS011;58302;51.446;-2.000;2023-06-24T00:44:04;11.35;;;8.18;;
55300;SDS011;58302;51.446;-2.000;2023-06-24T00:46:31;11.63;;;7.90;;
55300;SDS011;58302;51.446;-2.000;2023-06-24T00:48:58;11.35;;;7.38;;
55300;SDS011;58302;51.446;-2.000;2023-06-24T00:51:26;10.30;;;7.68;;
55300;SDS011;58302;51.446;-2.000;2023-06-24T00:53:55;9.85;;;6.07;;
55300;SDS011;58302;51.446;-2.000;2023-06-24T00:56:28;9.95;;;7.25;;
55300;SDS011;58302;51.446;-2.000;2023-06-24T00:59:04;9.18;;;6.30;;
55300;SDS011;58302;51.446;-2.000;2023-06-24T01:01:33;12.57;;;7.20;;
55300;SDS011;58302;51.446;-2.000;2023-06-24T01:04:01;8.35;;;6.85;;
55300;SDS011;58302;51.446;-2.000;2023-06-24T01:06:28;9.20;;;7.00;;
55300;SDS011;58302;51.446;-2.000;2023-06-24T01:08:56;8.15;;;6.88;;
55300;SDS011;58302;51.446;-2.000;2023-06-24T01:11:28;10.02;;;6.25;;
55300;SDS011;58302;51.446;-2.000;2023-06-24T01:13:55;9.52;;;6.40;;
55300;SDS011;58302;51.446;-2.000;2023-06-24T01:16:26;10.85;;;6.32;;
55300;SDS011;58302;51.446;-2.000;2023-06-24T01:30:09;9.63;;;6.80;;
55300;SDS011;58302;51.446;-2.000;2023-06-24T01:33:03;11.52;;;6.85;;
55300;SDS011;58302;51.446;-2.000;2023-06-24T01:35:34;8.82;;;6.30;;
55300;SDS011;58302;51.446;-2.000;2023-06-24T01:38:10;11.50;;;6.82;;
55300;SDS011;58302;51.446;-2.000;2023-06-24T01:40:47;11.13;;;7.05;;
55300;SDS011;58302;51.446;-2.000;2023-06-24T01:43:15;10.20;;;6.85;;
55300;SDS011;58302;51.446;-2.000;2023-06-24T01:45:44;9.43;;;6.82;;
55300;SDS011;58302;51.446;-2.000;2023-06-24T01:48:14;13.07;;;7.43;;
55300;SDS011;58302;51.446;-2.000;2023-06-24T01:50:50;8.35;;;6.60;;
55300;SDS011;58302;51.446;-2.000;2023-06-24T01:53:26;10.50;;;7.35;;
55300;SDS011;58302;51.446;-2.000;2023-06-24T01:55:54;10.18;;;6.38;;
55300;SDS011;58302;51.446;-2.000;2023-06-24T01:58:23;9.00;;;6.47;;
55300;SDS011;58302;51.446;-2.000;2023-06-24T02:00:49;11.52;;;7.25;;
55300;SDS011;58302;51.446;-2.000;2023-06-24T02:03:17;9.15;;;6.72;;
55300;SDS011;58302;51.446;-2.000;2023-06-24T02:05:44;10.38;;;6.38;;
55300;SDS011;58302;51.446;-2.000;2023-06-24T02:08:13;14.98;;;7.65;;
55300;SDS011;58302;51.446;-2.000;2023-06-24T02:10:41;9.80;;;7.03;;
55300;SDS011;58302;51.446;-2.000;2023-06-24T02:13:08;11.88;;;7.72;;
55300;SDS011;58302;51.446;-2.000;2023-06-24T02:15:35;10.55;;;8.30;;
55300;SDS011;58302;51.446;-2.000;2023-06-24T02:18:04;11.55;;;6.65;;
55300;SDS011;58302;51.446;-2.000;2023-06-24T02:20:31;10.60;;;7.00;;
55300;SDS011;58302;51.446;-2.000;2023-06-24T02:22:57;10.55;;;6.45;;
55300;SDS011;58302;51.446;-2.000;2023-06-24T02:25:24;12.32;;;6.95;;
55300;SDS011;58302;51.446;-2.000;2023-06-24T02:27:51;9.30;;;6.55;;
55300;SDS011;58302;51.446;-2.000;2023-06-24T02:30:19;10.00;;;6.68;;
55300;SDS011;58302;51.446;-2.000;2023-06-24T02:32:47;11.13;;;8.18;;
55300;SDS011;58302;51.446;-2.000;2023-06-24T02:35:13;10.10;;;7.20;;
55300;SDS011;58302;51.446;-2.000;2023-06-24T02:37:39;9.43;;;7.05;;
55300;SDS011;58302;51.446;-2.000;2023-06-24T02:40:06;11.32;;;7.32;;
55300;SDS011;58302;51.446;-2.000;2023-06-24T02:42:33;17.48;;;9.25;;
55300;SDS011;58302;51.446;-2.000;2023-06-24T02:44:59;12.13;;;7.90;;
55300;SDS011;58302;51.446;-2.000;2023-06-24T02:47:26;11.80;;;7.53;;
55300;SDS011;58302;51.446;-2.000;2023-06-24T02:49:54;12.23;;;8.10;;
55300;SDS011;58302;51.446;-2.000;2023-06-24T02:52:23;13.80;;;7.43;;
55300;SDS011;58302;51.446;-2.000;2023-06-24T02:54:49;10.20;;;7.47;;
55300;SDS011;58302;51.446;-2.000;2023-06-24T02:57:15;11.90;;;8.02;;
55300;SDS011;58302;51.446;-2.000;2023-06-24T02:59:42;9.20;;;7.00;;
55300;SDS011;58302;51.446;-2.000;2023-06-24T03:02:08;11.48;;;7.25;;
55300;SDS011;58302;51.446;-2.000;2023-06-24T03:04:34;12.45;;;7.03;;
55300;SDS011;58302;51.446;-2.000;2023-06-24T03:07:00;12.80;;;7.70;;
55300;SDS011;58302;51.446;-2.000;2023-06-24T03:09:29;12.98;;;7.35;;
55300;SDS011;58302;51.446;-2.000;2023-06-24T03:11:59;13.13;;;7.68;;
55300;SDS011;58302;51.446;-2.000;2023-06-24T03:14:25;12.55;;;7.43;;
55300;SDS011;58302;51.446;-2.000;2023-06-24T03:16:51;10.35;;;7.50;;
55300;SDS011;58302;51.446;-2.000;2023-06-24T03:19:17;8.55;;;7.13;;
55300;SDS011;58302;51.446;-2.000;2023-06-24T03:21:43;9.35;;;7.10;;
55300;SDS011;58302;51.446;-2.000;2023-06-24T03:24:09;9.13;;;7.20;;
55300;SDS011;58302;51.446;-2.000;2023-06-24T03:26:35;11.52;;;6.80;;
55300;SDS011;58302;51.446;-2.000;2023-06-24T03:29:02;15.07;;;7.68;;
55300;SDS011;58302;51.446;-2.000;2023-06-24T03:31:29;11.85;;;8.40;;
55300;SDS011;58302;51.446;-2.000;2023-06-24T03:33:55;13.43;;;7.25;;
55300;SDS011;58302;51.446;-2.000;2023-06-24T03:36:21;12.50;;;7.30;;
55300;SDS011;58302;51.446;-2.000;2023-06-24T03:38:47;10.25;;;7.45;;
55300;SDS011;58302;51.446;-2.000;2023-06-24T03:41:13;13.60;;;7.70;;
55300;SDS011;58302;51.446;-2.000;2023-06-24T03:43:39;11.68;;;7.90;;
55300;SDS011;58302;51.446;-2.000;2023-06-24T03:46:05;12.63;;;7.30;;
55300;SDS011;58302;51.446;-2.000;2023-06-24T03:48:31;12.50;;;7.78;;
55300;SDS011;58302;51.446;-2.000;2023-06-24T03:50:57;13.52;;;8.35;;
55300;SDS011;58302;51.446;-2.000;2023-06-24T03:53:22;8.70;;;6.53;;
55300;SDS011;58302;51.446;-2.000;2023-06-24T03:55:48;12.65;;;8.25;;
55300;SDS011;58302;51.446;-2.000;2023-06-24T03:58:14;13.15;;;8.15;;
55300;SDS011;58302;51.446;-2.000;2023-06-24T04:00:42;10.50;;;8.50;;
55300;SDS011;58302;51.446;-2.000;2023-06-24T04:03:09;11.63;;;7.47;;
55300;SDS011;58302;51.446;-2.000;2023-06-24T04:05:35;11.10;;;8.23;;
55300;SDS011;58302;51.446;-2.000;2023-06-24T04:08:01;11.23;;;7.30;;
55300;SDS011;58302;51.446;-2.000;2023-06-24T04:10:31;11.25;;;6.82;;
55300;SDS011;58302;51.446;-2.000;2023-06-24T04:12:57;10.45;;;6.95;;
55300;SDS011;58302;51.446;-2.000;2023-06-24T04:15:23;10.85;;;7.80;;
55300;SDS011;58302;51.446;-2.000;2023-06-24T04:17:49;13.45;;;7.43;;
55300;SDS011;58302;51.446;-2.000;2023-06-24T04:20:15;10.27;;;6.50;;
55300;SDS011;58302;51.446;-2.000;2023-06-24T04:22:41;11.32;;;7.90;;
55300;SDS011;58302;51.446;-2.000;2023-06-24T04:25:08;10.68;;;7.20;;
55300;SDS011;58302;51.446;-2.000;2023-06-24T04:27:34;10.43;;;7.25;;
55300;SDS011;58302;51.446;-2.000;2023-06-24T04:30:01;13.15;;;7.85;;
55300;SDS011;58302;51.446;-2.000;2023-06-24T04:32:28;12.38;;;8.63;;
55300;SDS011;58302;51.446;-2.000;2023-06-24T04:34:54;10.30;;;7.78;;
55300;SDS011;58302;51.446;-2.000;2023-06-24T04:37:20;11.55;;;7.35;;
55300;SDS011;58302;51.446;-2.000;2023-06-24T04:39:46;12.05;;;7.10;;
55300;SDS011;58302;51.446;-2.000;2023-06-24T04:42:11;10.63;;;7.07;;
55300;SDS011;58302;51.446;-2.000;2023-06-24T04:44:38;12.90;;;7.40;;
55300;SDS011;58302;51.446;-2.000;2023-06-24T04:47:04;13.38;;;7.32;;
55300;SDS011;58302;51.446;-2.000;2023-06-24T04:49:29;11.13;;;8.32;;
55300;SDS011;58302;51.446;-2.000;2023-06-24T04:51:55;9.55;;;7.63;;
55300;SDS011;58302;51.446;-2.000;2023-06-24T04:54:21;11.10;;;8.18;;
55300;SDS011;58302;51.446;-2.000;2023-06-24T04:56:47;10.55;;;6.82;;
55300;SDS011;58302;51.446;-2.000;2023-06-24T04:59:15;14.38;;;8.15;;
55300;SDS011;58302;51.446;-2.000;2023-06-24T05:01:41;11.45;;;6.82;;
55300;SDS011;58302;51.446;-2.000;2023-06-24T05:04:07;13.23;;;7.57;;
55300;SDS011;58302;51.446;-2.000;2023-06-24T05:06:33;10.65;;;7.68;;
55300;SDS011;58302;51.446;-2.000;2023-06-24T05:08:59;10.13;;;7.57;;
55300;SDS011;58302;51.446;-2.000;2023-06-24T05:11:24;9.60;;;6.78;;
55300;SDS011;58302;51.446;-2.000;2023-06-24T05:13:50;12.32;;;8.05;;
55300;SDS011;58302;51.446;-2.000;2023-06-24T05:16:16;8.52;;;6.97;;
55300;SDS011;58302;51.446;-2.000;2023-06-24T05:18:44;11.43;;;7.57;;
55300;SDS011;58302;51.446;-2.000;2023-06-24T05:21:11;12.13;;;6.35;;
55300;SDS011;58302;51.446;-2.000;2023-06-24T05:23:37;10.55;;;7.10;;
55300;SDS011;58302;51.446;-2.000;2023-06-24T05:26:02;10.75;;;6.97;;
55300;SDS011;58302;51.446;-2.000;2023-06-24T05:28:28;11.38;;;7.88;;
55300;SDS011;58302;51.446;-2.000;2023-06-24T05:30:54;9.93;;;7.78;;
55300;SDS011;58302;51.446;-2.000;2023-06-24T05:33:21;10.93;;;7.32;;
55300;SDS011;58302;51.446;-2.000;2023-06-24T05:35:47;10.45;;;6.40;;
55300;SDS011;58302;51.446;-2.000;2023-06-24T05:38:13;10.02;;;7.47;;
55300;SDS011;58302;51.446;-2.000;2023-06-24T05:40:39;10.52;;;6.85;;
55300;SDS011;58302;51.446;-2.000;2023-06-24T05:43:05;8.35;;;6.15;;
55300;SDS011;58302;51.446;-2.000;2023-06-24T05:45:31;8.43;;;6.80;;
55300;SDS011;58302;51.446;-2.000;2023-06-24T05:47:57;10.15;;;6.88;;
55300;SDS011;58302;51.446;-2.000;2023-06-24T05:50:23;10.18;;;6.88;;
55300;SDS011;58302;51.446;-2.000;2023-06-24T05:52:48;9.50;;;6.28;;
55300;SDS011;58302;51.446;-2.000;2023-06-24T05:55:14;8.65;;;6.30;;
55300;SDS011;58302;51.446;-2.000;2023-06-24T05:57:40;9.90;;;6.57;;
55300;SDS011;58302;51.446;-2.000;2023-06-24T06:00:06;9.80;;;6.13;;
55300;SDS011;58302;51.446;-2.000;2023-06-24T06:02:33;8.07;;;6.43;;
55300;SDS011;58302;51.446;-2.000;2023-06-24T06:04:59;12.05;;;6.97;;
55300;SDS011;58302;51.446;-2.000;2023-06-24T06:07:26;9.15;;;6.35;;
55300;SDS011;58302;51.446;-2.000;2023-06-24T06:09:52;8.18;;;6.40;;
55300;SDS011;58302;51.446;-2.000;2023-06-24T06:12:18;7.25;;;6.20;;
55300;SDS011;58302;51.446;-2.000;2023-06-24T06:14:44;9.38;;;6.25;;
55300;SDS011;58302;51.446;-2.000;2023-06-24T06:17:11;8.13;;;6.28;;
55300;SDS011;58302;51.446;-2.000;2023-06-24T06:19:37;8.52;;;6.03;;
55300;SDS011;58302;51.446;-2.000;2023-06-24T06:22:05;8.98;;;6.28;;
55300;SDS011;58302;51.446;-2.000;2023-06-24T06:24:31;9.02;;;6.57;;
55300;SDS011;58302;51.446;-2.000;2023-06-24T06:26:57;8.27;;;6.28;;
55300;SDS011;58302;51.446;-2.000;2023-06-24T06:29:23;8.43;;;5.82;;
55300;SDS011;58302;51.446;-2.000;2023-06-24T06:31:49;9.20;;;6.68;;
55300;SDS011;58302;51.446;-2.000;2023-06-24T06:34:15;8.98;;;5.38;;
55300;SDS011;58302;51.446;-2.000;2023-06-24T06:36:41;9.05;;;5.82;;
55300;SDS011;58302;51.446;-2.000;2023-06-24T06:39:07;7.47;;;5.40;;
55300;SDS011;58302;51.446;-2.000;2023-06-24T06:41:34;8.20;;;5.60;;
55300;SDS011;58302;51.446;-2.000;2023-06-24T06:44:00;7.43;;;5.25;;
55300;SDS011;58302;51.446;-2.000;2023-06-24T06:46:25;6.72;;;5.13;;
55300;SDS011;58302;51.446;-2.000;2023-06-24T06:48:51;5.22;;;4.38;;
55300;SDS011;58302;51.446;-2.000;2023-06-24T06:51:17;6.32;;;5.15;;
55300;SDS011;58302;51.446;-2.000;2023-06-24T06:53:46;6.32;;;5.05;;
55300;SDS011;58302;51.446;-2.000;2023-06-24T06:56:46;5.85;;;4.80;;
55300;SDS011;58302;51.446;-2.000;2023-06-24T06:59:05;5.32;;;4.07;;
55300;SDS011;58302;51.446;-2.000;2023-06-24T07:01:31;5.95;;;4.28;;
55300;SDS011;58302;51.446;-2.000;2023-06-24T07:03:57;4.60;;;4.05;;
55300;SDS011;58302;51.446;-2.000;2023-06-24T07:06:23;6.97;;;4.68;;
55300;SDS011;58302;51.446;-2.000;2023-06-24T07:08:49;4.30;;;3.85;;
55300;SDS011;58302;51.446;-2.000;2023-06-24T07:11:15;6.10;;;4.45;;
55300;SDS011;58302;51.446;-2.000;2023-06-24T07:13:41;6.93;;;5.13;;
55300;SDS011;58302;51.446;-2.000;2023-06-24T07:16:07;7.18;;;5.03;;
55300;SDS011;58302;51.446;-2.000;2023-06-24T07:18:32;6.35;;;4.78;;
55300;SDS011;58302;51.446;-2.000;2023-06-24T07:20:59;8.63;;;5.13;;
55300;SDS011;58302;51.446;-2.000;2023-06-24T07:23:25;6.22;;;3.85;;
55300;SDS011;58302;51.446;-2.000;2023-06-24T07:25:51;4.70;;;4.13;;
55300;SDS011;58302;51.446;-2.000;2023-06-24T07:28:17;6.15;;;4.95;;
55300;SDS011;58302;51.446;-2.000;2023-06-24T07:30:43;7.18;;;4.22;;
55300;SDS011;58302;51.446;-2.000;2023-06-24T07:33:09;5.10;;;4.18;;
55300;SDS011;58302;51.446;-2.000;2023-06-24T07:35:35;6.10;;;4.57;;
55300;SDS011;58302;51.446;-2.000;2023-06-24T07:38:01;7.70;;;4.78;;
55300;SDS011;58302;51.446;-2.000;2023-06-24T07:40:27;4.40;;;4.00;;
55300;SDS011;58302;51.446;-2.000;2023-06-24T07:42:53;6.07;;;4.25;;
55300;SDS011;58302;51.446;-2.000;2023-06-24T07:45:19;5.50;;;4.80;;
55300;SDS011;58302;51.446;-2.000;2023-06-24T07:47:46;4.90;;;3.72;;
55300;SDS011;58302;51.446;-2.000;2023-06-24T07:50:11;4.63;;;3.70;;
55300;SDS011;58302;51.446;-2.000;2023-06-24T07:52:38;8.40;;;4.28;;
55300;SDS011;58302;51.446;-2.000;2023-06-24T07:55:04;6.97;;;3.95;;
55300;SDS011;58302;51.446;-2.000;2023-06-24T07:57:30;4.40;;;4.00;;
55300;SDS011;58302;51.446;-2.000;2023-06-24T07:59:56;5.25;;;4.20;;
55300;SDS011;58302;51.446;-2.000;2023-06-24T08:02:22;7.50;;;3.58;;
55300;SDS011;58302;51.446;-2.000;2023-06-24T08:04:51;5.38;;;2.95;;
55300;SDS011;58302;51.446;-2.000;2023-06-24T08:07:17;4.20;;;3.40;;
55300;SDS011;58302;51.446;-2.000;2023-06-24T08:09:43;4.93;;;3.40;;
55300;SDS011;58302;51.446;-2.000;2023-06-24T08:12:09;5.22;;;3.78;;
55300;SDS011;58302;51.446;-2.000;2023-06-24T08:14:35;4.47;;;3.28;;
55300;SDS011;58302;51.446;-2.000;2023-06-24T08:17:02;5.00;;;3.20;;
55300;SDS011;58302;51.446;-2.000;2023-06-24T08:19:28;5.20;;;2.78;;
55300;SDS011;58302;51.446;-2.000;2023-06-24T08:21:54;3.95;;;3.20;;
55300;SDS011;58302;51.446;-2.000;2023-06-24T08:24:19;4.53;;;3.55;;
55300;SDS011;58302;51.446;-2.000;2023-06-24T08:26:45;6.50;;;3.40;;
55300;SDS011;58302;51.446;-2.000;2023-06-24T08:29:11;3.55;;;3.13;;
55300;SDS011;58302;51.446;-2.000;2023-06-24T08:31:37;7.68;;;3.00;;
55300;SDS011;58302;51.446;-2.000;2023-06-24T08:34:03;6.32;;;3.35;;
55300;SDS011;58302;51.446;-2.000;2023-06-24T08:36:31;4.00;;;3.38;;
55300;SDS011;58302;51.446;-2.000;2023-06-24T08:38:58;4.90;;;3.60;;
55300;SDS011;58302;51.446;-2.000;2023-06-24T08:41:24;6.25;;;3.03;;
55300;SDS011;58302;51.446;-2.000;2023-06-24T08:43:50;4.82;;;3.40;;
55300;SDS011;58302;51.446;-2.000;2023-06-24T08:46:17;4.80;;;3.25;;
55300;SDS011;58302;51.446;-2.000;2023-06-24T08:48:44;3.28;;;2.92;;
55300;SDS011;58302;51.446;-2.000;2023-06-24T08:51:11;5.00;;;3.40;;
55300;SDS011;58302;51.446;-2.000;2023-06-24T08:53:42;3.88;;;2.85;;
55300;SDS011;58302;51.446;-2.000;2023-06-24T08:56:12;5.13;;;3.17;;
55300;SDS011;58302;51.446;-2.000;2023-06-24T08:58:40;3.83;;;3.53;;
55300;SDS011;58302;51.446;-2.000;2023-06-24T09:01:06;4.70;;;3.72;;
55300;SDS011;58302;51.446;-2.000;2023-06-24T09:03:33;4.47;;;3.28;;
55300;SDS011;58302;51.446;-2.000;2023-06-24T09:05:59;4.40;;;3.10;;
55300;SDS011;58302;51.446;-2.000;2023-06-24T09:08:25;5.75;;;3.30;;
55300;SDS011;58302;51.446;-2.000;2023-06-24T09:10:54;3.58;;;2.95;;
55300;SDS011;58302;51.446;-2.000;2023-06-24T09:13:35;4.43;;;2.70;;
55300;SDS011;58302;51.446;-2.000;2023-06-24T09:16:09;3.83;;;3.42;;
55300;SDS011;58302;51.446;-2.000;2023-06-24T09:18:37;3.75;;;3.10;;
55300;SDS011;58302;51.446;-2.000;2023-06-24T09:21:03;3.22;;;2.85;;
55300;SDS011;58302;51.446;-2.000;2023-06-24T09:23:29;7.07;;;3.63;;
55300;SDS011;58302;51.446;-2.000;2023-06-24T09:25:55;4.45;;;3.38;;
55300;SDS011;58302;51.446;-2.000;2023-06-24T09:28:25;5.13;;;3.72;;
55300;SDS011;58302;51.446;-2.000;2023-06-24T09:31:08;4.03;;;3.20;;
55300;SDS011;58302;51.446;-2.000;2023-06-24T09:33:35;3.60;;;3.08;;
55300;SDS011;58302;51.446;-2.000;2023-06-24T09:36:02;4.20;;;3.08;;
55300;SDS011;58302;51.446;-2.000;2023-06-24T09:38:35;3.92;;;3.50;;
55300;SDS011;58302;51.446;-2.000;2023-06-24T09:41:03;5.60;;;3.67;;
55300;SDS011;58302;51.446;-2.000;2023-06-24T09:43:30;3.42;;;3.10;;
55300;SDS011;58302;51.446;-2.000;2023-06-24T09:46:01;4.57;;;3.20;;
55300;SDS011;58302;51.446;-2.000;2023-06-24T09:48:27;4.80;;;3.17;;
55300;SDS011;58302;51.446;-2.000;2023-06-24T09:51:02;4.55;;;3.17;;
55300;SDS011;58302;51.446;-2.000;2023-06-24T09:53:35;3.15;;;2.70;;
55300;SDS011;58302;51.446;-2.000;2023-06-24T09:56:05;6.47;;;3.05;;
55300;SDS011;58302;51.446;-2.000;2023-06-24T09:58:36;3.58;;;2.50;;
55300;SDS011;58302;51.446;-2.000;2023-06-24T10:01:03;4.28;;;2.97;;
55300;SDS011;58302;51.446;-2.000;2023-06-24T10:03:36;5.60;;;2.90;;
55300;SDS011;58302;51.446;-2.000;2023-06-24T10:08:31;2.90;;;2.55;;
55300;SDS011;58302;51.446;-2.000;2023-06-24T10:10:58;2.78;;;2.50;;
55300;SDS011;58302;51.446;-2.000;2023-06-24T10:13:25;5.20;;;3.38;;
55300;SDS011;58302;51.446;-2.000;2023-06-24T10:15:51;5.72;;;3.45;;
55300;SDS011;58302;51.446;-2.000;2023-06-24T10:18:37;2.83;;;2.53;;
55300;SDS011;58302;51.446;-2.000;2023-06-24T10:21:05;3.72;;;2.50;;
55300;SDS011;58302;51.446;-2.000;2023-06-24T10:26:23;3.15;;;2.63;;
55300;SDS011;58302;51.446;-2.000;2023-06-24T10:47:41;3.88;;;2.67;;
55300;SDS011;58302;51.446;-2.000;2023-06-24T10:50:09;3.75;;;3.45;;
55300;SDS011;58302;51.446;-2.000;2023-06-24T10:52:38;5.35;;;3.00;;
55300;SDS011;58302;51.446;-2.000;2023-06-24T10:55:05;4.00;;;2.65;;
55300;SDS011;58302;51.446;-2.000;2023-06-24T10:57:32;4.65;;;2.42;;
55300;SDS011;58302;51.446;-2.000;2023-06-24T10:59:59;3.15;;;2.28;;
55300;SDS011;58302;51.446;-2.000;2023-06-24T11:02:27;5.57;;;2.58;;
55300;SDS011;58302;51.446;-2.000;2023-06-24T11:04:57;3.40;;;2.65;;
55300;SDS011;58302;51.446;-2.000;2023-06-24T11:07:29;3.72;;;2.17;;
55300;SDS011;58302;51.446;-2.000;2023-06-24T11:10:06;3.53;;;2.38;;
55300;SDS011;58302;51.446;-2.000;2023-06-24T11:12:34;3.15;;;2.80;;
55300;SDS011;58302;51.446;-2.000;2023-06-24T11:15:05;3.17;;;2.80;;
55300;SDS011;58302;51.446;-2.000;2023-06-24T11:17:33;5.25;;;3.00;;
55300;SDS011;58302;51.446;-2.000;2023-06-24T11:20:00;3.00;;;2.30;;
55300;SDS011;58302;51.446;-2.000;2023-06-24T11:22:27;3.97;;;2.88;;
55300;SDS011;58302;51.446;-2.000;2023-06-24T11:24:53;4.28;;;2.53;;
55300;SDS011;58302;51.446;-2.000;2023-06-24T11:27:24;3.53;;;2.63;;
55300;SDS011;58302;51.446;-2.000;2023-06-24T11:29:52;3.60;;;2.67;;
55300;SDS011;58302;51.446;-2.000;2023-06-24T11:32:19;4.57;;;2.58;;
55300;SDS011;58302;51.446;-2.000;2023-06-24T11:34:46;3.92;;;2.53;;
55300;SDS011;58302;51.446;-2.000;2023-06-24T11:37:13;3.72;;;2.45;;
55300;SDS011;58302;51.446;-2.000;2023-06-24T11:39:40;2.97;;;2.30;;
55300;SDS011;58302;51.446;-2.000;2023-06-24T11:42:07;3.70;;;2.65;;
55300;SDS011;58302;51.446;-2.000;2023-06-24T11:44:33;3.25;;;2.10;;
55300;SDS011;58302;51.446;-2.000;2023-06-24T11:47:03;2.67;;;2.08;;
55300;SDS011;58302;51.446;-2.000;2023-06-24T11:49:52;2.40;;;1.77;;
55300;SDS011;58302;51.446;-2.000;2023-06-24T11:52:32;3.05;;;1.92;;
55300;SDS011;58302;51.446;-2.000;2023-06-24T11:55:01;3.30;;;2.42;;
55300;SDS011;58302;51.446;-2.000;2023-06-24T12:00:36;2.47;;;2.28;;
55300;SDS011;58302;51.446;-2.000;2023-06-24T12:03:08;4.13;;;2.10;;
55300;SDS011;58302;51.446;-2.000;2023-06-24T12:05:36;2.88;;;2.00;;
55300;SDS011;58302;51.446;-2.000;2023-06-24T12:10:32;2.78;;;2.40;;
55300;SDS011;58302;51.446;-2.000;2023-06-24T12:12:59;2.80;;;2.13;;
55300;SDS011;58302;51.446;-2.000;2023-06-24T12:15:26;4.13;;;2.22;;
55300;SDS011;58302;51.446;-2.000;2023-06-24T12:17:53;2.50;;;1.88;;
55300;SDS011;58302;51.446;-2.000;2023-06-24T12:20:19;3.33;;;2.10;;
55300;SDS011;58302;51.446;-2.000;2023-06-24T12:22:46;1.60;;;1.50;;
55300;SDS011;58302;51.446;-2.000;2023-06-24T12:25:13;2.20;;;1.75;;
55300;SDS011;58302;51.446;-2.000;2023-06-24T12:27:41;2.15;;;1.90;;
55300;SDS011;58302;51.446;-2.000;2023-06-24T12:30:08;2.67;;;2.28;;
55300;SDS011;58302;51.446;-2.000;2023-06-24T12:32:35;5.72;;;2.50;;
55300;SDS011;58302;51.446;-2.000;2023-06-24T12:35:01;2.42;;;2.22;;
55300;SDS011;58302;51.446;-2.000;2023-06-24T12:37:30;4.78;;;3.15;;
55300;SDS011;58302;51.446;-2.000;2023-06-24T12:39:57;3.08;;;2.22;;
55300;SDS011;58302;51.446;-2.000;2023-06-24T12:42:23;2.85;;;2.55;;
55300;SDS011;58302;51.446;-2.000;2023-06-24T12:44:50;2.70;;;2.22;;
55300;SDS011;58302;51.446;-2.000;2023-06-24T12:47:16;2.50;;;1.90;;
55300;SDS011;58302;51.446;-2.000;2023-06-24T12:49:42;2.42;;;2.17;;
55300;SDS011;58302;51.446;-2.000;2023-06-24T12:52:08;2.50;;;2.00;;
55300;SDS011;58302;51.446;-2.000;2023-06-24T12:54:34;2.65;;;2.15;;
55300;SDS011;58302;51.446;-2.000;2023-06-24T12:57:00;2.42;;;2.20;;
55300;SDS011;58302;51.446;-2.000;2023-06-24T12:59:27;2.45;;;2.05;;
55300;SDS011;58302;51.446;-2.000;2023-06-24T13:01:53;3.17;;;2.13;;
55300;SDS011;58302;51.446;-2.000;2023-06-24T13:04:19;2.33;;;2.08;;
55300;SDS011;58302;51.446;-2.000;2023-06-24T13:06:47;2.05;;;1.92;;
55300;SDS011;58302;51.446;-2.000;2023-06-24T13:09:14;2.95;;;2.30;;
55300;SDS011;58302;51.446;-2.000;2023-06-24T13:11:40;3.95;;;2.08;;
55300;SDS011;58302;51.446;-2.000;2023-06-24T13:14:06;3.05;;;1.85;;
55300;SDS011;58302;51.446;-2.000;2023-06-24T13:16:32;3.35;;;2.10;;
55300;SDS011;58302;51.446;-2.000;2023-06-24T13:18:58;2.50;;;2.30;;
55300;SDS011;58302;51.446;-2.000;2023-06-24T13:21:24;2.40;;;2.17;;
55300;SDS011;58302;51.446;-2.000;2023-06-24T13:23:50;2.30;;;2.10;;
55300;SDS011;58302;51.446;-2.000;2023-06-24T13:26:16;2.22;;;2.03;;
55300;SDS011;58302;51.446;-2.000;2023-06-24T13:28:42;3.60;;;2.50;;
55300;SDS011;58302;51.446;-2.000;2023-06-24T13:31:09;4.68;;;2.28;;
55300;SDS011;58302;51.446;-2.000;2023-06-24T13:33:35;3.30;;;2.13;;
55300;SDS011;58302;51.446;-2.000;2023-06-24T13:36:01;3.13;;;2.20;;
55300;SDS011;58302;51.446;-2.000;2023-06-24T13:38:32;2.33;;;2.13;;
55300;SDS011;58302;51.446;-2.000;2023-06-24T13:40:58;3.03;;;2.45;;
55300;SDS011;58302;51.446;-2.000;2023-06-24T13:43:24;2.28;;;1.90;;
55300;SDS011;58302;51.446;-2.000;2023-06-24T13:45:51;2.22;;;2.03;;
55300;SDS011;58302;51.446;-2.000;2023-06-24T13:48:17;4.65;;;2.67;;
55300;SDS011;58302;51.446;-2.000;2023-06-24T13:50:43;3.00;;;2.10;;
55300;SDS011;58302;51.446;-2.000;2023-06-24T13:53:09;2.75;;;2.05;;
55300;SDS011;58302;51.446;-2.000;2023-06-24T13:55:35;3.10;;;2.00;;
55300;SDS011;58302;51.446;-2.000;2023-06-24T13:58:02;2.38;;;2.17;;
55300;SDS011;58302;51.446;-2.000;2023-06-24T14:00:28;2.67;;;2.35;;
55300;SDS011;58302;51.446;-2.000;2023-06-24T14:02:54;2.50;;;2.10;;
55300;SDS011;58302;51.446;-2.000;2023-06-24T14:05:20;2.33;;;2.10;;
55300;SDS011;58302;51.446;-2.000;2023-06-24T14:07:46;2.30;;;2.10;;
55300;SDS011;58302;51.446;-2.000;2023-06-24T14:10:12;2.30;;;2.10;;
55300;SDS011;58302;51.446;-2.000;2023-06-24T14:12:38;11.85;;;3.85;;
55300;SDS011;58302;51.446;-2.000;2023-06-24T14:15:04;3.25;;;2.10;;
55300;SDS011;58302;51.446;-2.000;2023-06-24T14:17:30;2.25;;;2.00;;
55300;SDS011;58302;51.446;-2.000;2023-06-24T14:19:56;2.80;;;1.95;;
55300;SDS011;58302;51.446;-2.000;2023-06-24T14:22:22;3.22;;;2.20;;
55300;SDS011;58302;51.446;-2.000;2023-06-24T14:24:49;2.38;;;2.17;;
55300;SDS011;58302;51.446;-2.000;2023-06-24T14:27:15;2.53;;;2.00;;
55300;SDS011;58302;51.446;-2.000;2023-06-24T14:29:41;3.67;;;2.90;;
55300;SDS011;58302;51.446;-2.000;2023-06-24T14:32:07;2.67;;;2.20;;
55300;SDS011;58302;51.446;-2.000;2023-06-24T14:34:33;2.20;;;2.00;;
55300;SDS011;58302;51.446;-2.000;2023-06-24T14:36:59;2.17;;;1.80;;
55300;SDS011;58302;51.446;-2.000;2023-06-24T14:39:25;2.58;;;2.28;;
55300;SDS011;58302;51.446;-2.000;2023-06-24T14:41:51;2.25;;;1.85;;
55300;SDS011;58302;51.446;-2.000;2023-06-24T14:44:17;3.08;;;2.15;;
55300;SDS011;58302;51.446;-2.000;2023-06-24T14:46:43;3.33;;;2.10;;
55300;SDS011;58302;51.446;-2.000;2023-06-24T14:49:09;2.88;;;2.30;;
55300;SDS011;58302;51.446;-2.000;2023-06-24T14:51:35;2.90;;;2.53;;
55300;SDS011;58302;51.446;-2.000;2023-06-24T14:54:01;2.65;;;1.80;;
55300;SDS011;58302;51.446;-2.000;2023-06-24T14:56:27;2.42;;;2.03;;
55300;SDS011;58302;51.446;-2.000;2023-06-24T14:58:53;2.63;;;2.35;;
55300;SDS011;58302;51.446;-2.000;2023-06-24T15:01:19;3.38;;;2.47;;
55300;SDS011;58302;51.446;-2.000;2023-06-24T15:03:45;2.45;;;2.25;;
55300;SDS011;58302;51.446;-2.000;2023-06-24T15:06:10;2.78;;;2.40;;
55300;SDS011;58302;51.446;-2.000;2023-06-24T15:08:36;2.90;;;2.45;;
55300;SDS011;58302;51.446;-2.000;2023-06-24T15:11:02;3.58;;;2.40;;